Time;durP1;ratioP1;P1;durP2;ratioP2;P2;SDS_P1;SDS_P2;PMS_P1;PMS_P2;Temp;Humidity;BMP_temperature;BMP_pressure;BME280_temperature;BME280_humidity;BME280_pressure;Samples;Min_cycle;Max_cycle;Signal;HPM_P1;HPM_P2
2021/12/21 00:01:32;;;;;;;10.60;4.53;;;;;;;3.20;58.86;101063.16;4989635;28;100941;-79
2021/12/21 00:03:58;;;;;;;10.90;5.13;;;;;;;3.18;58.83;101066.63;4974544;28;101163;-81
2021/12/21 00:06:23;;;;;;;10.40;4.57;;;;;;;3.18;59.03;101065.75;4971301;28;97102;-79
2021/12/21 00:08:49;;;;;;;14.80;5.57;;;;;;;3.16;59.12;101063.13;4977475;28;97358;-79
2021/12/21 00:11:15;;;;;;;16.47;6.00;;;;;;;3.10;58.65;101070.00;4958478;28;101277;-83
2021/12/21 00:13:56;;;;;;;13.13;5.53;;;;;;;3.10;58.74;101075.19;4994000;28;97289;-79
2021/12/21 00:19:27;;;;;;;15.27;6.07;;;;;;;2.97;58.87;101057.75;4984692;28;97130;-86
2021/12/21 00:22:01;;;;;;;13.80;5.50;;;;;;;3.01;58.53;101070.78;4971429;28;101321;-78
2021/12/21 00:24:33;;;;;;;11.07;5.57;;;;;;;3.08;58.88;101072.56;4972461;28;97957;-80
2021/12/21 00:27:00;;;;;;;13.25;5.68;;;;;;;3.10;58.86;101080.38;4958077;28;97531;-82
2021/12/21 00:29:26;;;;;;;9.73;4.60;;;;;;;3.06;58.74;101073.44;4974860;28;97130;-80
2021/12/21 00:31:51;;;;;;;13.70;5.60;;;;;;;3.10;58.57;101076.06;4984376;28;97773;-79
2021/12/21 00:34:17;;;;;;;9.57;6.23;;;;;;;3.09;58.73;101081.25;4958276;28;101032;-79
2021/12/21 00:36:46;;;;;;;11.87;5.93;;;;;;;3.09;59.43;101082.09;4976416;28;97336;-79
2021/12/21 00:39:15;;;;;;;10.93;5.23;;;;;;;3.00;59.51;101073.38;4968960;28;97819;-79
2021/12/21 00:41:40;;;;;;;10.77;6.30;;;;;;;3.08;59.61;101085.53;4992108;28;99552;-78
2021/12/21 00:44:06;;;;;;;11.37;5.37;;;;;;;3.02;59.64;101076.84;4971193;28;101745;-84
2021/12/21 00:46:31;;;;;;;13.97;6.83;;;;;;;3.04;59.62;101076.00;4976300;28;97687;-80
2021/12/21 00:49:02;;;;;;;14.33;7.20;;;;;;;3.06;60.12;101081.22;4988008;28;97271;-79
2021/12/21 00:51:27;;;;;;;15.73;7.17;;;;;;;3.04;59.80;101083.78;4986983;28;98554;-80
2021/12/21 00:53:53;;;;;;;14.13;6.30;;;;;;;3.02;59.71;101085.50;4973522;28;100875;-79
2021/12/21 00:56:19;;;;;;;15.33;6.97;;;;;;;2.95;59.59;101069.00;4968250;28;97995;-81
2021/12/21 00:58:45;;;;;;;15.27;7.20;;;;;;;2.96;59.26;101075.06;4962189;28;97282;-79
2021/12/21 01:01:10;;;;;;;12.57;6.93;;;;;;;2.97;60.06;101088.91;4991721;28;97740;-79
2021/12/21 01:03:41;;;;;;;15.70;7.17;;;;;;;2.88;59.46;101067.22;4970022;28;101329;-79
2021/12/21 01:06:16;;;;;;;18.43;6.97;;;;;;;2.91;59.83;101066.41;4988970;28;97143;-84
2021/12/21 01:09:02;;;;;;;13.23;6.70;;;;;;;2.92;59.80;101087.13;4961621;28;97051;-78
2021/12/21 01:11:32;;;;;;;13.43;7.60;;;;;;;2.88;60.18;101090.56;4956544;28;101129;-79
2021/12/21 01:17:01;;;;;;;16.60;7.50;;;;;;;2.75;60.11;101080.06;4985776;28;97146;-81
2021/12/21 01:22:59;;;;;;;13.50;6.30;;;;;;;2.83;59.84;101097.44;4973219;28;101597;-79
2021/12/21 01:30:20;;;;;;;13.90;6.10;;;;;;;2.85;60.31;101095.72;4967340;28;96904;-85
2021/12/21 01:33:03;;;;;;;13.50;6.50;;;;;;;2.81;60.14;101096.53;4976623;28;97896;-79
2021/12/21 01:35:34;;;;;;;12.83;5.93;;;;;;;2.76;60.28;101097.34;4974245;28;100405;-82
2021/12/21 01:38:08;;;;;;;13.65;6.05;;;;;;;2.82;60.04;101092.22;4969891;28;96779;-79
2021/12/21 01:43:54;;;;;;;11.23;5.30;;;;;;;2.78;59.78;101095.63;4964017;28;101020;-79
2021/12/21 01:51:42;;;;;;;13.17;5.57;;;;;;;2.76;60.34;101095.59;4992987;28;97219;-80
2021/12/21 01:54:08;;;;;;;11.43;5.43;;;;;;;2.71;59.89;101098.16;4982478;28;97605;-86
2021/12/21 01:56:34;;;;;;;14.23;6.10;;;;;;;2.76;60.09;101098.19;4974118;28;101342;-80
2021/12/21 01:58:59;;;;;;;11.00;5.80;;;;;;;2.74;60.09;101097.34;4962488;28;96745;-79
2021/12/21 02:01:26;;;;;;;14.00;5.73;;;;;;;2.75;59.86;101093.00;4992018;28;97200;-79
2021/12/21 02:03:52;;;;;;;12.00;5.50;;;;;;;2.73;60.06;101087.81;4962579;28;101480;-79
2021/12/21 02:06:20;;;;;;;9.47;5.33;;;;;;;2.37;59.93;101042.50;4980066;28;101372;-79
2021/12/21 02:08:47;;;;;;;11.77;5.47;;;;;;;2.72;59.80;101084.34;4952662;28;100019;-79
2021/12/21 02:11:12;;;;;;;13.73;5.37;;;;;;;2.68;59.82;101085.19;4975581;28;97104;-79
2021/12/21 02:13:43;;;;;;;11.70;5.50;;;;;;;2.71;59.57;101079.16;4975630;28;100989;-78
2021/12/21 02:16:08;;;;;;;11.57;5.30;;;;;;;2.56;59.52;101050.47;4976732;28;97416;-84
2021/12/21 02:18:50;;;;;;;13.10;5.63;;;;;;;2.70;59.42;101083.44;4978542;28;97041;-79
2021/12/21 02:21:27;;;;;;;13.40;4.93;;;;;;;2.61;59.62;101085.09;4963993;28;96879;-79
2021/12/21 02:23:58;;;;;;;9.73;4.93;;;;;;;2.49;59.58;101058.19;4983538;28;100169;-78
2021/12/21 02:29:30;;;;;;;11.23;5.70;;;;;;;2.57;59.89;101078.16;4899911;28;97809;-78
2021/12/21 02:31:55;;;;;;;17.77;5.80;;;;;;;2.40;59.75;101052.03;4896816;28;96802;-80
2021/12/21 02:34:23;;;;;;;13.50;5.97;;;;;;;2.45;59.88;101060.75;4897199;28;98049;-79
2021/12/21 02:36:50;;;;;;;9.67;5.53;;;;;;;2.56;59.96;101071.19;4879501;28;97524;-79
2021/12/21 02:39:17;;;;;;;15.10;6.70;;;;;;;2.59;59.86;101064.34;4911933;28;96790;-79
2021/12/21 02:41:43;;;;;;;12.23;5.50;;;;;;;2.65;59.30;101063.53;4896876;28;97290;-79
2021/12/21 02:44:09;;;;;;;13.23;5.40;;;;;;;2.62;59.19;101063.53;4894486;28;101531;-78
2021/12/21 02:46:38;;;;;;;13.37;6.10;;;;;;;2.63;59.61;101060.91;4895539;28;98233;-79
2021/12/21 02:49:04;;;;;;;12.23;5.97;;;;;;;2.65;59.25;101064.41;4878831;28;96939;-80
2021/12/21 02:51:30;;;;;;;13.40;5.93;;;;;;;2.61;59.23;101064.34;4896391;28;97286;-79
2021/12/21 02:53:55;;;;;;;11.30;5.37;;;;;;;2.56;59.33;101048.75;4912257;28;98644;-80
2021/12/21 02:56:21;;;;;;;10.03;5.87;;;;;;;2.64;59.32;101059.19;4894781;28;97837;-79
2021/12/21 02:58:46;;;;;;;16.37;6.13;;;;;;;2.60;59.48;101058.31;4896139;28;97102;-79
2021/12/21 03:01:12;;;;;;;14.67;5.60;;;;;;;2.50;59.40;101035.72;4946952;28;97643;-83
2021/12/21 03:03:38;;;;;;;15.47;6.83;;;;;;;2.59;58.81;101050.50;4964358;28;101426;-80
2021/12/21 03:06:09;;;;;;;11.07;5.03;;;;;;;2.59;58.91;101053.09;4973886;28;97952;-79
2021/12/21 03:08:42;;;;;;;15.25;5.05;;;;;;;2.36;59.57;101032.13;4968545;28;97175;-81
2021/12/21 03:11:16;;;;;;;8.63;4.80;;;;;;;2.45;59.36;101035.69;4968328;28;97003;-79
2021/12/21 03:16:25;;;;;;;12.67;5.80;;;;;;;2.60;59.35;101047.06;4973653;28;101305;-79
2021/12/21 03:18:52;;;;;;;11.03;4.90;;;;;;;2.62;59.02;101050.56;4969344;28;96779;-79
2021/12/21 03:21:18;;;;;;;10.00;4.53;;;;;;;2.57;59.31;101040.13;4961374;28;97472;-79
2021/12/21 03:23:43;;;;;;;11.67;5.13;;;;;;;2.60;58.95;101049.66;4990374;28;97424;-78
2021/12/21 03:26:09;;;;;;;10.30;4.30;;;;;;;2.57;59.14;101042.72;4962176;28;97558;-78
2021/12/21 03:28:34;;;;;;;11.10;5.00;;;;;;;2.57;59.30;101040.13;4966224;28;97144;-79
2021/12/21 03:31:00;;;;;;;12.57;5.37;;;;;;;2.56;59.10;101033.22;4974765;28;97104;-80
2021/12/21 03:33:26;;;;;;;10.03;4.90;;;;;;;2.45;59.28;101024.47;4964910;28;101230;-79
2021/12/21 03:35:51;;;;;;;8.97;4.83;;;;;;;2.50;59.38;101040.91;4984295;28;101421;-81
2021/12/21 03:38:17;;;;;;;8.47;4.63;;;;;;;2.59;59.30;101047.91;4979049;28;96968;-81
2021/12/21 03:40:44;;;;;;;9.33;4.80;;;;;;;2.66;59.22;101052.31;4984866;28;96814;-79
2021/12/21 03:43:10;;;;;;;12.13;4.87;;;;;;;2.47;59.07;101026.22;4960650;28;99900;-79
2021/12/21 03:45:41;;;;;;;11.80;5.13;;;;;;;2.57;58.86;101047.03;4954631;28;101245;-79
2021/12/21 03:48:06;;;;;;;8.90;4.77;;;;;;;2.57;59.30;101044.44;4981456;28;96943;-79
2021/12/21 03:50:32;;;;;;;9.97;4.83;;;;;;;2.60;59.32;101045.34;4977325;28;97026;-81
2021/12/21 03:52:58;;;;;;;7.63;4.57;;;;;;;2.53;59.46;101042.66;4963167;28;101519;-82
2021/12/21 03:55:23;;;;;;;10.30;4.47;;;;;;;2.56;58.96;101047.88;4970110;28;101617;-81
2021/12/21 03:57:49;;;;;;;10.07;5.90;;;;;;;2.57;59.42;101047.91;4965436;28;97144;-79
2021/12/21 04:00:16;;;;;;;8.93;4.33;;;;;;;2.50;59.05;101040.91;4988221;28;97863;-86
2021/12/21 04:02:42;;;;;;;9.20;4.63;;;;;;;2.45;59.07;101024.47;4969492;28;101325;-82
2021/12/21 04:05:08;;;;;;;11.23;4.60;;;;;;;2.52;59.28;101030.56;4970675;28;98305;-81
2021/12/21 04:07:34;;;;;;;11.90;4.30;;;;;;;2.52;59.09;101031.44;4975036;28;96772;-79
2021/12/21 04:09:59;;;;;;;13.70;5.10;;;;;;;2.44;59.12;101020.09;4964863;28;97104;-81
2021/12/21 04:12:25;;;;;;;12.23;4.90;;;;;;;2.50;59.33;101035.72;4970315;28;100780;-79
2021/12/21 04:14:52;;;;;;;9.27;4.17;;;;;;;2.46;59.45;101040.00;4973444;28;100903;-79
2021/12/21 04:17:22;;;;;;;11.77;5.10;;;;;;;2.53;59.31;101047.84;4984124;28;97010;-79
2021/12/21 04:19:49;;;;;;;11.20;4.97;;;;;;;2.52;59.51;101052.16;4988596;28;97039;-79
2021/12/21 04:22:15;;;;;;;11.33;5.10;;;;;;;2.29;59.39;101005.28;4971500;28;101532;-83
2021/12/21 04:24:40;;;;;;;12.03;4.90;;;;;;;2.53;59.32;101047.84;4988420;28;101461;-79
2021/12/21 04:27:06;;;;;;;9.70;4.33;;;;;;;2.39;59.62;101030.44;4986583;28;97077;-78
2021/12/21 04:29:32;;;;;;;10.37;5.00;;;;;;;2.49;59.01;101054.72;4955622;28;97039;-78
2021/12/21 04:31:57;;;;;;;10.37;4.40;;;;;;;2.53;59.60;101058.22;4953877;28;101542;-79
2021/12/21 04:34:23;;;;;;;11.27;5.10;;;;;;;2.41;59.51;101040.81;4983217;28;101078;-79
2021/12/21 04:36:48;;;;;;;8.97;3.90;;;;;;;2.49;59.49;101049.53;4969303;28;96829;-79
2021/12/21 04:39:35;;;;;;;10.87;4.30;;;;;;;2.46;59.61;101052.97;4974530;28;97155;-86
2021/12/21 04:42:01;;;;;;;9.13;4.47;;;;;;;2.35;59.65;101032.97;4993094;28;101054;-79
2021/12/21 04:44:26;;;;;;;11.37;3.73;;;;;;;2.51;59.75;101059.94;4983106;28;97485;-79
2021/12/21 04:46:52;;;;;;;9.37;3.83;;;;;;;2.47;59.08;101069.38;4955579;28;97373;-79
2021/12/21 04:49:17;;;;;;;8.93;3.97;;;;;;;2.41;59.98;101062.41;4969510;28;97244;-79
2021/12/21 04:51:43;;;;;;;6.33;3.47;;;;;;;2.18;59.63;101020.72;4979207;28;97487;-79
2021/12/21 04:54:09;;;;;;;10.23;4.63;;;;;;;2.43;59.26;101067.63;4980288;28;97377;-79
2021/12/21 04:56:34;;;;;;;12.60;5.47;;;;;;;2.45;59.84;101060.75;4969717;28;97284;-79
2021/12/21 04:59:00;;;;;;;10.80;4.53;;;;;;;2.41;59.18;101059.81;4963612;28;96930;-80
2021/12/21 05:01:25;;;;;;;17.37;4.77;;;;;;;2.42;59.50;101074.53;4979836;28;97472;-79
2021/12/21 05:03:51;;;;;;;12.10;4.50;;;;;;;2.44;59.04;101072.84;4970152;28;101346;-78
2021/12/21 05:06:19;;;;;;;11.97;5.33;;;;;;;2.43;58.96;101077.97;4984075;28;97537;-84
2021/12/21 05:08:52;;;;;;;13.33;4.87;;;;;;;2.43;59.18;101083.16;4963329;28;97092;-79
2021/12/21 05:11:20;;;;;;;12.80;5.07;;;;;;;2.42;59.23;101079.72;4989052;28;101686;-82
2021/12/21 05:13:45;;;;;;;14.37;5.50;;;;;;;2.32;59.16;101044.16;4972419;28;101027;-79
2021/12/21 05:16:11;;;;;;;9.87;5.07;;;;;;;2.44;59.20;101062.47;4977702;28;97204;-79
2021/12/21 05:18:36;;;;;;;10.43;5.00;;;;;;;2.48;59.58;101074.59;4973751;28;97350;-79
2021/12/21 05:21:03;;;;;;;10.50;4.37;;;;;;;2.58;58.71;101080.75;4969933;28;97499;-79
2021/12/21 05:23:29;;;;;;;7.03;3.53;;;;;;;2.61;58.68;101074.72;4977919;28;97489;-79
2021/12/21 05:25:55;;;;;;;13.20;4.30;;;;;;;2.52;58.69;101065.13;4976016;28;96812;-79
2021/12/21 05:28:20;;;;;;;7.17;3.70;;;;;;;2.59;58.89;101086.78;4975266;28;96996;-78
2021/12/21 05:30:46;;;;;;;8.53;3.90;;;;;;;2.57;59.19;101086.78;4951829;28;101330;-79
2021/12/21 05:33:14;;;;;;;7.77;4.30;;;;;;;2.40;59.47;101067.59;4955846;28;100813;-78
2021/12/21 05:35:39;;;;;;;7.83;4.53;;;;;;;2.40;59.70;101090.91;4990816;28;96896;-79
2021/12/21 05:38:08;;;;;;;9.27;4.03;;;;;;;2.38;59.49;101083.09;4967155;28;97051;-81
2021/12/21 05:40:40;;;;;;;9.90;4.40;;;;;;;2.45;59.74;101076.28;4989818;28;97765;-79
2021/12/21 05:43:07;;;;;;;10.97;4.43;;;;;;;2.39;59.31;101064.13;4969722;28;100913;-79
2021/12/21 05:45:33;;;;;;;10.23;4.50;;;;;;;2.59;59.68;101089.38;4992003;28;97751;-80
2021/12/21 05:47:58;;;;;;;11.47;4.80;;;;;;;2.57;59.85;101084.19;4959625;28;96935;-78
2021/12/21 05:50:25;;;;;;;9.50;4.60;;;;;;;2.47;60.14;101070.28;4974621;28;101208;-80
2021/12/21 05:52:50;;;;;;;10.07;4.90;;;;;;;2.56;60.33;101089.34;4958858;28;101057;-78
2021/12/21 05:55:17;;;;;;;11.87;5.00;;;;;;;2.52;60.33;101096.22;4961575;28;96749;-83
2021/12/21 05:57:43;;;;;;;10.03;4.50;;;;;;;2.39;60.64;101073.63;4971937;28;97168;-80
2021/12/21 06:00:12;;;;;;;8.30;4.60;;;;;;;2.38;60.33;101058.91;4972512;28;101197;-79
2021/12/21 06:02:38;;;;;;;8.43;4.03;;;;;;;2.56;60.81;101087.66;4973008;28;100928;-79
2021/12/21 06:05:05;;;;;;;11.33;5.23;;;;;;;2.54;60.35;101084.16;4965060;28;96858;-79
2021/12/21 06:07:31;;;;;;;10.90;4.77;;;;;;;2.56;60.62;101085.06;4980844;28;96739;-80
2021/12/21 06:09:57;;;;;;;10.47;4.93;;;;;;;2.54;60.58;101081.56;4960280;28;101586;-80
2021/12/21 06:15:31;;;;;;;13.37;5.47;;;;;;;2.55;61.03;101090.22;4966127;28;97611;-83
2021/12/21 06:25:59;;;;;;;10.77;3.90;;;;;;;2.37;61.07;101077.91;4991847;28;96658;-80
2021/12/21 06:28:26;;;;;;;7.57;4.60;;;;;;;2.47;61.45;101108.25;4964377;28;96921;-91
2021/12/21 06:30:52;;;;;;;9.33;4.07;;;;;;;2.48;61.51;101100.50;4978227;28;98676;-88
2021/12/21 06:33:17;;;;;;;8.47;4.67;;;;;;;2.51;61.45;101104.88;4962625;28;105293;-86
2021/12/21 06:35:43;;;;;;;9.50;4.27;;;;;;;2.52;61.67;101110.91;4968959;28;98145;-90
2021/12/21 06:38:10;;;;;;;11.07;4.60;;;;;;;2.51;61.48;101104.88;4979245;28;97233;-83
2021/12/21 06:40:36;;;;;;;8.97;4.27;;;;;;;2.47;61.51;101101.38;4972518;28;98122;-88
2021/12/21 06:43:03;;;;;;;9.33;4.20;;;;;;;2.50;61.38;101110.88;4955270;28;100358;-80
2021/12/21 06:53:36;;;;;;;11.83;5.20;;;;;;;2.49;62.02;101122.09;4967888;28;101443;-78
2021/12/21 06:56:05;;;;;;;9.87;4.77;;;;;;;2.53;62.07;101123.91;4972601;28;96815;-78
2021/12/21 06:58:31;;;;;;;10.20;4.80;;;;;;;2.49;62.41;101124.69;4969530;28;96868;-79
2021/12/21 07:00:57;;;;;;;10.73;4.47;;;;;;;2.51;61.72;101127.31;4971569;28;98604;-77
2021/12/21 07:03:23;;;;;;;12.80;4.73;;;;;;;2.46;61.80;101122.94;4979958;28;97596;-79
2021/12/21 07:05:50;;;;;;;13.30;4.77;;;;;;;2.43;61.82;101127.22;4968266;28;97082;-78
2021/12/21 07:08:21;;;;;;;9.83;4.30;;;;;;;2.38;61.65;101124.56;4964378;28;97152;-78
2021/12/21 07:10:55;;;;;;;8.25;4.50;;;;;;;2.39;61.05;101125.47;4960439;28;97417;-77
2021/12/21 07:18:50;;;;;;;15.83;4.83;;;;;;;2.46;60.88;101128.13;4964231;28;97174;-80
2021/12/21 07:21:16;;;;;;;7.33;3.50;;;;;;;2.40;60.88;101129.78;4971373;28;101724;-79
2021/12/21 07:23:41;;;;;;;8.73;3.23;;;;;;;2.36;60.99;101131.47;4974629;28;101513;-79
2021/12/21 07:26:07;;;;;;;6.30;3.30;;;;;;;2.36;60.60;101123.69;4956828;28;96811;-78
2021/12/21 07:28:33;;;;;;;7.27;2.93;;;;;;;2.34;61.20;101135.75;4968077;28;97068;-83
2021/12/21 07:30:59;;;;;;;5.00;2.10;;;;;;;2.40;60.88;101133.22;4974786;28;99016;-79
2021/12/21 07:33:24;;;;;;;8.27;2.77;;;;;;;2.37;60.76;101143.56;4970301;28;101440;-78
2021/12/21 07:35:50;;;;;;;7.77;3.00;;;;;;;2.22;60.65;101114.88;4968958;28;97274;-78
2021/12/21 07:38:15;;;;;;;15.67;3.73;;;;;;;2.41;60.74;101139.28;4965576;28;97589;-78
2021/12/21 07:40:41;;;;;;;15.33;3.40;;;;;;;2.43;60.58;101132.41;4969166;28;100327;-78
2021/12/21 07:43:07;;;;;;;9.83;3.97;;;;;;;2.40;60.56;101138.41;4967491;28;101135;-78
2021/12/21 07:45:33;;;;;;;11.80;2.77;;;;;;;2.29;61.17;101114.09;4995364;28;98752;-82
2021/12/21 07:47:59;;;;;;;4.43;2.50;;;;;;;2.43;60.59;101140.19;4966344;28;97460;-81
2021/12/21 07:50:25;;;;;;;5.57;2.93;;;;;;;2.45;60.76;101149.72;4974406;28;98497;-78
2021/12/21 07:52:54;;;;;;;5.20;2.73;;;;;;;2.41;60.53;101144.47;4957565;28;101147;-79
2021/12/21 07:55:20;;;;;;;8.17;3.53;;;;;;;2.37;60.70;101138.38;4954921;28;97620;-79
2021/12/21 07:57:46;;;;;;;5.73;3.23;;;;;;;2.31;60.78;101125.34;4969548;28;96858;-79
2021/12/21 08:00:13;;;;;;;7.20;2.93;;;;;;;2.23;60.52;101114.00;5000342;28;101818;-80
2021/12/21 08:02:40;;;;;;;7.83;3.63;;;;;;;2.42;60.91;101141.91;4982017;28;97762;-79
2021/12/21 08:05:10;;;;;;;6.57;3.43;;;;;;;2.40;60.18;101141.00;4970465;28;97022;-80
2021/12/21 08:07:45;;;;;;;7.27;2.83;;;;;;;2.41;60.84;101140.16;4965367;28;97003;-80
2021/12/21 08:10:40;;;;;;;6.27;2.90;;;;;;;2.43;60.90;101143.63;4985957;28;100982;-78
2021/12/21 08:13:05;;;;;;;6.83;3.33;;;;;;;2.41;60.93;101142.75;4996270;28;97736;-86
2021/12/21 08:15:32;;;;;;;7.73;3.40;;;;;;;2.40;61.28;101141.00;4969945;28;96725;-90
2021/12/21 08:17:57;;;;;;;7.83;3.73;;;;;;;2.44;61.31;101140.22;4989210;28;96789;-90
2021/12/21 08:20:26;;;;;;;6.73;3.60;;;;;;;2.52;61.30;101145.47;5006920;28;101193;-88
2021/12/21 08:22:55;;;;;;;7.23;3.83;;;;;;;2.45;61.43;101144.53;4992087;28;101798;-88
2021/12/21 08:25:25;;;;;;;6.77;3.40;;;;;;;2.53;61.08;101144.63;4989954;28;96753;-92
2021/12/21 08:27:53;;;;;;;4.93;2.77;;;;;;;2.56;61.35;101148.97;4974356;28;96584;-87
2021/12/21 08:30:18;;;;;;;5.57;2.70;;;;;;;2.63;60.66;101161.16;4987543;28;101493;-92
2021/12/21 08:32:44;;;;;;;4.33;2.07;;;;;;;2.62;60.57;101157.72;4989731;28;97383;-79
2021/12/21 08:35:13;;;;;;;5.00;2.03;;;;;;;2.60;59.93;101161.13;4997826;28;96639;-95
2021/12/21 08:37:41;;;;;;;6.27;2.40;;;;;;;2.61;59.61;101166.31;4974370;28;96729;-91
2021/12/21 08:40:10;;;;;;;4.20;2.10;;;;;;;2.55;59.38;101150.69;4980352;28;97659;-87
2021/12/21 08:42:38;;;;;;;4.70;2.33;;;;;;;2.68;59.50;101162.97;4991212;28;98056;-83
2021/12/21 08:45:06;;;;;;;7.20;2.73;;;;;;;2.65;59.33;101160.34;4969287;28;96993;-85
2021/12/21 08:47:36;;;;;;;5.47;2.40;;;;;;;2.65;59.70;101169.84;4958572;28;97724;-83
2021/12/21 08:50:04;;;;;;;4.43;2.00;;;;;;;2.69;59.42;101171.59;5006003;28;98347;-86
2021/12/21 08:52:30;;;;;;;4.27;2.37;;;;;;;2.62;59.83;101165.47;4972381;28;100705;-85
2021/12/21 08:54:55;;;;;;;7.40;2.80;;;;;;;2.64;59.49;101161.16;4987397;28;96712;-85
2021/12/21 08:57:21;;;;;;;4.67;2.67;;;;;;;2.70;58.97;101174.19;4966767;28;96910;-79
2021/12/21 08:59:46;;;;;;;6.93;2.80;;;;;;;2.74;58.99;101163.88;4971909;28;101669;-87
2021/12/21 09:02:12;;;;;;;7.87;2.60;;;;;;;2.62;59.02;101144.75;4976681;28;101302;-91
2021/12/21 09:04:39;;;;;;;5.63;2.77;;;;;;;2.72;58.83;101166.44;4972039;28;97512;-90
2021/12/21 09:07:05;;;;;;;5.30;2.93;;;;;;;2.75;58.70;101161.28;4980251;28;97274;-95
2021/12/21 09:09:31;;;;;;;4.10;2.63;;;;;;;2.82;58.60;101168.31;4951730;28;101262;-90
2021/12/21 09:11:57;;;;;;;6.40;2.90;;;;;;;2.86;58.35;101180.44;4972768;28;101096;-94
2021/12/21 09:14:23;;;;;;;5.47;2.30;;;;;;;2.80;58.48;101161.38;4990468;28;96809;-91
2021/12/21 09:16:49;;;;;;;3.40;2.00;;;;;;;2.87;58.53;101183.91;4957642;28;96885;-92
2021/12/21 09:19:16;;;;;;;5.23;2.53;;;;;;;2.86;57.76;101179.56;4961291;28;100250;-95
2021/12/21 09:21:43;;;;;;;4.97;2.20;;;;;;;2.71;57.61;101146.56;4975995;28;101396;-91
2021/12/21 09:24:09;;;;;;;4.10;2.17;;;;;;;2.88;57.74;101173.56;4965665;28;97301;-90
2021/12/21 09:26:35;;;;;;;6.03;2.70;;;;;;;2.91;58.15;101171.00;4981943;28;97681;-94
2021/12/21 09:29:01;;;;;;;5.70;2.80;;;;;;;2.95;58.31;101170.16;4951025;28;101382;-94
2021/12/21 09:31:27;;;;;;;6.33;2.20;;;;;;;2.99;57.75;101170.19;4989163;28;100047;-86
2021/12/21 09:33:53;;;;;;;5.57;2.40;;;;;;;2.98;58.15;101166.75;4984294;28;97859;-94
2021/12/21 09:36:18;;;;;;;5.17;2.50;;;;;;;3.02;57.51;101165.91;4975684;28;96941;-95
2021/12/21 09:38:44;;;;;;;6.73;2.20;;;;;;;3.01;57.22;101171.94;4967341;28;101253;-94
2021/12/21 09:41:10;;;;;;;7.00;2.73;;;;;;;3.02;57.47;101178.88;4970416;28;101468;-92
2021/12/21 09:43:36;;;;;;;7.10;2.93;;;;;;;3.00;57.28;101170.22;4973302;28;97328;-93
2021/12/21 09:46:01;;;;;;;4.27;2.40;;;;;;;2.94;57.35;101160.66;4968169;28;97176;-92
2021/12/21 09:48:30;;;;;;;4.40;2.43;;;;;;;2.99;56.65;101154.63;4975054;28;100919;-87
2021/12/21 09:50:56;;;;;;;6.30;2.97;;;;;;;2.91;56.70;101145.06;4993342;28;100541;-93
2021/12/21 09:53:22;;;;;;;9.37;3.33;;;;;;;3.01;57.32;101174.56;4981642;28;96724;-94
2021/12/21 09:55:49;;;;;;;8.80;4.53;;;;;;;3.04;56.87;101164.19;4990028;28;96900;-94
2021/12/21 09:58:15;;;;;;;9.43;4.90;;;;;;;3.04;57.71;101160.75;4983427;28;100724;-95
2021/12/21 10:00:41;;;;;;;8.40;4.37;;;;;;;3.09;57.26;101172.91;4979656;28;100677;-93
2021/12/21 10:03:09;;;;;;;9.73;4.93;;;;;;;2.92;57.39;101127.78;4957191;28;96816;-94
2021/12/21 10:05:42;;;;;;;12.50;5.00;;;;;;;3.09;57.10;101159.94;4977376;28;97746;-91
2021/12/21 10:08:11;;;;;;;11.37;5.93;;;;;;;3.22;56.79;101167.84;4975322;28;98389;-94
2021/12/21 10:10:40;;;;;;;12.23;5.97;;;;;;;3.23;56.55;101165.28;4958854;28;100725;-96
2021/12/21 10:13:09;;;;;;;10.43;6.37;;;;;;;3.11;56.90;101132.28;4961008;28;96864;-94
2021/12/21 10:15:55;;;;;;;14.47;6.93;;;;;;;3.22;56.57;101158.31;4968347;28;96823;-95
2021/12/21 10:18:25;;;;;;;10.57;6.37;;;;;;;3.20;57.17;101154.88;4971069;28;101446;-96
2021/12/21 10:20:51;;;;;;;9.07;5.83;;;;;;;3.22;57.27;101160.91;4977388;28;96851;-89
2021/12/21 10:23:20;;;;;;;10.80;5.90;;;;;;;3.18;57.40;101165.22;4966966;28;97062;-96
2021/12/21 10:25:50;;;;;;;10.80;5.80;;;;;;;3.12;57.27;101154.78;4978039;28;97337;-93
2021/12/21 10:28:30;;;;;;;11.27;5.13;;;;;;;3.17;57.88;101162.59;4990632;28;97427;-93
2021/12/21 10:30:56;;;;;;;11.67;6.00;;;;;;;3.26;57.57;101167.88;4974966;28;101284;-91
2021/12/21 10:33:23;;;;;;;11.07;5.40;;;;;;;3.21;57.18;101160.91;4950454;28;97088;-94
2021/12/21 10:35:50;;;;;;;11.70;5.03;;;;;;;3.23;56.77;101165.28;4983587;28;97222;-94
2021/12/21 10:38:37;;;;;;;6.50;3.60;;;;;;;3.21;55.66;101171.28;4961766;28;101195;-92
2021/12/21 10:41:07;;;;;;;9.63;3.07;;;;;;;3.19;55.16;101158.28;4987736;28;101553;-85
2021/12/21 10:43:33;;;;;;;4.73;2.67;;;;;;;3.18;54.76;101156.56;4985790;28;96928;-89
2021/12/21 10:45:59;;;;;;;4.57;2.73;;;;;;;3.17;54.38;101157.41;4957566;28;97235;-91
2021/12/21 10:48:24;;;;;;;6.93;2.50;;;;;;;3.15;54.03;101160.00;4955958;28;101868;-92
2021/12/21 10:50:51;;;;;;;5.67;2.77;;;;;;;3.03;53.99;101140.84;4987265;28;97623;-93
2021/12/21 10:53:18;;;;;;;8.23;2.03;;;;;;;3.18;54.15;101160.03;4962003;28;98226;-89
2021/12/21 10:55:45;;;;;;;5.60;2.20;;;;;;;3.13;53.42;101153.91;4970603;28;97794;-91
2021/12/21 10:58:15;;;;;;;5.73;2.50;;;;;;;3.16;53.55;101148.75;4952771;28;101342;-88
2021/12/21 11:01:03;;;;;;;6.63;3.50;;;;;;;3.14;53.67;101147.88;4987247;28;101112;-91
2021/12/21 11:03:51;;;;;;;6.00;2.97;;;;;;;3.16;53.94;101151.34;4980418;28;96892;-94
2021/12/21 11:06:26;;;;;;;8.20;4.17;;;;;;;3.22;54.17;101147.94;4974909;28;96961;-90
2021/12/21 11:08:54;;;;;;;8.90;3.20;;;;;;;3.18;53.49;101144.44;4959977;28;101652;-93
2021/12/21 11:11:32;;;;;;;7.90;3.20;;;;;;;3.22;53.67;101150.53;4972970;28;99969;-88
2021/12/21 11:14:13;;;;;;;7.87;3.97;;;;;;;3.20;54.02;101139.28;4988398;28;96729;-91
2021/12/21 11:16:45;;;;;;;7.53;3.40;;;;;;;3.21;53.56;101142.75;4963324;28;97271;-86
2021/12/21 11:19:12;;;;;;;9.60;3.75;;;;;;;2.98;54.44;101098.44;4982965;28;98091;-91
2021/12/21 11:21:38;;;;;;;8.90;4.63;;;;;;;3.21;54.75;101138.44;4986370;28;98295;-85
2021/12/21 11:24:09;;;;;;;9.87;4.17;;;;;;;3.14;54.46;101118.44;4978840;28;97065;-86
2021/12/21 11:26:36;;;;;;;14.37;4.70;;;;;;;3.29;54.55;101144.56;4959292;28;97652;-85
2021/12/21 11:29:08;;;;;;;8.77;3.43;;;;;;;3.27;54.67;101133.28;4957608;28;101539;-85
2021/12/21 11:31:39;;;;;;;7.13;3.63;;;;;;;3.32;54.21;101138.53;4957273;28;101321;-88
2021/12/21 11:34:08;;;;;;;10.93;4.33;;;;;;;3.28;54.13;101145.41;4991383;28;96684;-85
2021/12/21 11:39:20;;;;;;;8.07;3.73;;;;;;;3.27;54.59;101138.47;4972767;28;101353;-88
2021/12/21 11:41:46;;;;;;;9.57;4.20;;;;;;;3.29;54.97;101135.91;4951730;28;101260;-86
2021/12/21 11:44:32;;;;;;;11.13;5.00;;;;;;;3.35;55.17;101135.97;4975679;28;96838;-85
2021/12/21 11:47:01;;;;;;;12.80;4.90;;;;;;;3.29;55.28;101123.81;4983193;28;98427;-85
2021/12/21 11:49:33;;;;;;;9.53;4.77;;;;;;;3.16;55.15;101111.56;4965324;28;101409;-85
2021/12/21 11:52:14;;;;;;;16.17;8.07;;;;;;;3.29;55.40;101134.19;4960234;28;101502;-86
2021/12/21 11:54:51;;;;;;;26.83;14.63;;;;;;;3.32;55.65;101126.41;4964558;28;97216;-86
2021/12/21 11:57:18;;;;;;;24.50;12.00;;;;;;;3.20;55.22;101115.94;4967935;28;96981;-87
2021/12/21 11:59:45;;;;;;;15.83;5.63;;;;;;;3.31;54.39;101134.19;4989509;28;100738;-85
2021/12/21 12:02:11;;;;;;;10.30;4.87;;;;;;;3.37;54.66;101129.03;4972840;28;100457;-85
2021/12/21 12:04:37;;;;;;;8.77;3.73;;;;;;;3.35;54.67;101129.03;4989153;28;97927;-85
2021/12/21 12:07:18;;;;;;;11.17;3.40;;;;;;;3.36;53.66;101127.31;4968535;28;96971;-86
2021/12/21 12:09:44;;;;;;;6.03;2.80;;;;;;;3.33;54.64;101120.34;4972686;28;101754;-88
2021/12/21 12:12:16;;;;;;;8.50;2.90;;;;;;;3.36;54.74;101124.72;4958890;28;101560;-84
2021/12/21 12:14:44;;;;;;;7.93;3.55;;;;;;;3.34;55.44;101113.44;4986355;28;97052;-80
2021/12/21 12:17:16;;;;;;;8.47;3.70;;;;;;;3.34;55.26;101126.41;4963343;28;96768;-85
2021/12/21 12:19:51;;;;;;;8.48;3.70;;;;;;;3.31;55.94;101118.59;4963619;28;101514;-87
2021/12/21 12:22:17;;;;;;;11.60;4.33;;;;;;;3.29;56.63;101113.41;4964945;28;98001;-86
2021/12/21 12:24:54;;;;;;;8.33;4.43;;;;;;;3.24;57.50;101109.03;4985697;28;97783;-86
2021/12/21 12:27:21;;;;;;;8.53;3.70;;;;;;;3.39;57.57;101127.31;4954998;28;97348;-85